sensor_id;sensor_type;location;lat;lon;timestamp;pressure;altitude;pressure_sealevel;temperature;humidity
83021;BME280;72837;47.418;19.394;2023-09-19T00:00:49;99256.94;;;21.45;57.70
83021;BME280;72837;47.418;19.394;2023-09-19T00:03:16;99265.91;;;21.54;57.56
83021;BME280;72837;47.418;19.394;2023-09-19T00:05:44;99269.75;;;21.44;57.73
83021;BME280;72837;47.418;19.394;2023-09-19T00:08:12;99259.59;;;21.36;57.95
83021;BME280;72837;47.418;19.394;2023-09-19T00:10:43;99275.63;;;21.29;58.74
83021;BME280;72837;47.418;19.394;2023-09-19T00:13:11;99267.09;;;21.31;58.37
83021;BME280;72837;47.418;19.394;2023-09-19T00:15:47;99272.88;;;21.29;58.87
83021;BME280;72837;47.418;19.394;2023-09-19T00:18:19;99271.41;;;21.23;58.92
83021;BME280;72837;47.418;19.394;2023-09-19T00:20:48;99273.16;;;21.19;59.22
83021;BME280;72837;47.418;19.394;2023-09-19T00:23:17;99275.44;;;21.26;59.03
83021;BME280;72837;47.418;19.394;2023-09-19T00:25:47;99279.09;;;21.21;59.50
83021;BME280;72837;47.418;19.394;2023-09-19T00:28:15;99276.66;;;21.20;59.14
83021;BME280;72837;47.418;19.394;2023-09-19T00:30:44;99272.03;;;21.20;59.28
83021;BME280;72837;47.418;19.394;2023-09-19T00:33:12;99275.31;;;21.09;59.46
83021;BME280;72837;47.418;19.394;2023-09-19T00:35:53;99268.09;;;21.04;59.60
83021;BME280;72837;47.418;19.394;2023-09-19T00:38:22;99270.69;;;21.09;59.77
83021;BME280;72837;47.418;19.394;2023-09-19T00:40:54;99270.06;;;21.12;59.64
83021;BME280;72837;47.418;19.394;2023-09-19T00:43:26;99266.03;;;21.10;59.83
83021;BME280;72837;47.418;19.394;2023-09-19T00:45:56;99257.19;;;21.04;60.12
83021;BME280;72837;47.418;19.394;2023-09-19T00:48:24;99263.59;;;21.00;60.19
83021;BME280;72837;47.418;19.394;2023-09-19T00:50:58;99261.41;;;21.10;60.13
83021;BME280;72837;47.418;19.394;2023-09-19T00:53:30;99255.59;;;21.03;60.51
83021;BME280;72837;47.418;19.394;2023-09-19T00:55:58;99259.63;;;21.06;60.11
83021;BME280;72837;47.418;19.394;2023-09-19T00:58:26;99261.84;;;21.04;60.07
83021;BME280;72837;47.418;19.394;2023-09-19T01:01:00;99257.66;;;20.98;60.48
83021;BME280;72837;47.418;19.394;2023-09-19T01:03:27;99257.97;;;20.96;60.56
83021;BME280;72837;47.418;19.394;2023-09-19T01:05:55;99257.31;;;20.91;60.86
83021;BME280;72837;47.418;19.394;2023-09-19T01:08:22;99253.09;;;20.85;60.99
83021;BME280;72837;47.418;19.394;2023-09-19T01:10:57;99255.69;;;20.90;60.71
83021;BME280;72837;47.418;19.394;2023-09-19T01:13:55;99254.59;;;20.91;60.84
83021;BME280;72837;47.418;19.394;2023-09-19T01:16:36;99258.09;;;20.91;61.09
83021;BME280;72837;47.418;19.394;2023-09-19T01:19:20;99254.44;;;20.96;60.71
83021;BME280;72837;47.418;19.394;2023-09-19T01:22:00;99250.31;;;20.98;61.02
83021;BME280;72837;47.418;19.394;2023-09-19T01:24:54;99248.22;;;20.95;61.30
83021;BME280;72837;47.418;19.394;2023-09-19T01:30:14;99246.94;;;21.01;61.15
83021;BME280;72837;47.418;19.394;2023-09-19T01:32:42;99237.41;;;21.12;60.14
83021;BME280;72837;47.418;19.394;2023-09-19T01:35:10;99244.78;;;21.12;60.64
83021;BME280;72837;47.418;19.394;2023-09-19T01:37:40;99249.59;;;21.15;60.73
83021;BME280;72837;47.418;19.394;2023-09-19T01:40:13;99250.03;;;21.08;60.49
83021;BME280;72837;47.418;19.394;2023-09-19T01:46:05;99243.03;;;21.16;60.64
83021;BME280;72837;47.418;19.394;2023-09-19T01:49:00;99241.28;;;21.20;60.64
83021;BME280;72837;47.418;19.394;2023-09-19T01:54:12;99237.41;;;21.12;60.80
83021;BME280;72837;47.418;19.394;2023-09-19T01:56:52;99235.31;;;21.09;60.66
83021;BME280;72837;47.418;19.394;2023-09-19T01:59:30;99240.38;;;21.02;61.07
83021;BME280;72837;47.418;19.394;2023-09-19T02:02:01;99233.22;;;21.06;61.11
83021;BME280;72837;47.418;19.394;2023-09-19T02:04:32;99231.25;;;20.98;61.15
83021;BME280;72837;47.418;19.394;2023-09-19T02:07:00;99230.63;;;21.01;60.96
83021;BME280;72837;47.418;19.394;2023-09-19T02:09:27;99241.31;;;20.98;61.49
83021;BME280;72837;47.418;19.394;2023-09-19T02:11:55;99241.56;;;20.88;61.79
83021;BME280;72837;47.418;19.394;2023-09-19T02:14:22;99240.38;;;20.80;61.80
83021;BME280;72837;47.418;19.394;2023-09-19T02:16:50;99239.78;;;20.83;61.82
83021;BME280;72837;47.418;19.394;2023-09-19T02:19:17;99239.78;;;20.83;62.10
83021;BME280;72837;47.418;19.394;2023-09-19T02:21:45;99239.19;;;20.86;61.49
83021;BME280;72837;47.418;19.394;2023-09-19T02:24:12;99239.25;;;20.81;62.06
83021;BME280;72837;47.418;19.394;2023-09-19T02:26:40;99235.56;;;20.77;62.13
83021;BME280;72837;47.418;19.394;2023-09-19T02:29:08;99231.53;;;20.75;62.07
83021;BME280;72837;47.418;19.394;2023-09-19T02:31:40;99215.47;;;20.65;62.27
83021;BME280;72837;47.418;19.394;2023-09-19T02:34:08;99223.28;;;20.80;62.23
83021;BME280;72837;47.418;19.394;2023-09-19T02:36:36;99223.56;;;20.78;61.87
83021;BME280;72837;47.418;19.394;2023-09-19T02:39:03;99223.09;;;20.76;62.37
83021;BME280;72837;47.418;19.394;2023-09-19T02:41:33;99225.50;;;20.78;61.90
83021;BME280;72837;47.418;19.394;2023-09-19T02:44:00;99228.72;;;20.80;62.19
83021;BME280;72837;47.418;19.394;2023-09-19T02:46:28;99235.28;;;20.79;62.25
83021;BME280;72837;47.418;19.394;2023-09-19T02:48:55;99239.50;;;20.71;62.16
83021;BME280;72837;47.418;19.394;2023-09-19T02:51:23;99227.66;;;20.67;62.72
83021;BME280;72837;47.418;19.394;2023-09-19T02:53:50;99219.50;;;20.67;62.54
83021;BME280;72837;47.418;19.394;2023-09-19T02:56:21;99225.88;;;20.63;63.05
83021;BME280;72837;47.418;19.394;2023-09-19T02:58:49;99227.28;;;20.60;62.83
83021;BME280;72837;47.418;19.394;2023-09-19T03:01:17;99223.28;;;20.58;63.27
83021;BME280;72837;47.418;19.394;2023-09-19T03:03:45;99224.50;;;20.52;63.39
83021;BME280;72837;47.418;19.394;2023-09-19T03:06:13;99225.31;;;20.52;63.08
83021;BME280;72837;47.418;19.394;2023-09-19T03:08:42;99218.38;;;20.46;63.73
83021;BME280;72837;47.418;19.394;2023-09-19T03:11:11;99223.84;;;20.46;63.31
83021;BME280;72837;47.418;19.394;2023-09-19T03:13:41;99222.66;;;20.39;63.88
83021;BME280;72837;47.418;19.394;2023-09-19T03:16:10;99220.38;;;20.32;64.13
83021;BME280;72837;47.418;19.394;2023-09-19T03:18:39;99211.22;;;20.28;63.95
83021;BME280;72837;47.418;19.394;2023-09-19T03:21:06;99214.97;;;20.19;64.62
83021;BME280;72837;47.418;19.394;2023-09-19T03:23:33;99204.44;;;20.17;64.50
83021;BME280;72837;47.418;19.394;2023-09-19T03:26:01;99210.78;;;20.13;64.93
83021;BME280;72837;47.418;19.394;2023-09-19T03:28:33;99208.66;;;20.10;64.42
83021;BME280;72837;47.418;19.394;2023-09-19T03:31:07;99204.84;;;19.97;64.52
83021;BME280;72837;47.418;19.394;2023-09-19T03:33:36;99224.28;;;20.04;65.09
83021;BME280;72837;47.418;19.394;2023-09-19T03:36:05;99217.03;;;20.00;65.10
83021;BME280;72837;47.418;19.394;2023-09-19T03:38:33;99229.41;;;19.92;65.13
83021;BME280;72837;47.418;19.394;2023-09-19T03:41:02;99223.00;;;19.88;65.15
83021;BME280;72837;47.418;19.394;2023-09-19T03:43:31;99216.94;;;19.91;65.25
83021;BME280;72837;47.418;19.394;2023-09-19T03:46:02;99218.47;;;19.84;65.82
83021;BME280;72837;47.418;19.394;2023-09-19T03:48:37;99208.03;;;19.77;65.80
83021;BME280;72837;47.418;19.394;2023-09-19T03:51:04;99206.41;;;19.76;66.04
83021;BME280;72837;47.418;19.394;2023-09-19T03:53:32;99210.53;;;19.74;65.83
83021;BME280;72837;47.418;19.394;2023-09-19T03:55:59;99213.66;;;19.67;66.27
83021;BME280;72837;47.418;19.394;2023-09-19T03:58:29;99215.88;;;19.65;66.73
83021;BME280;72837;47.418;19.394;2023-09-19T04:00:57;99213.78;;;19.62;66.79
83021;BME280;72837;47.418;19.394;2023-09-19T04:03:27;99219.00;;;19.59;66.81
83021;BME280;72837;47.418;19.394;2023-09-19T04:06:02;99223.13;;;19.56;66.52
83021;BME280;72837;47.418;19.394;2023-09-19T04:08:29;99234.59;;;19.53;67.01
83021;BME280;72837;47.418;19.394;2023-09-19T04:10:57;99218.31;;;19.53;67.20
83021;BME280;72837;47.418;19.394;2023-09-19T04:13:24;99235.31;;;19.46;67.21
83021;BME280;72837;47.418;19.394;2023-09-19T04:15:53;99229.56;;;19.60;66.80
83021;BME280;72837;47.418;19.394;2023-09-19T04:18:20;99233.22;;;19.56;67.21
83021;BME280;72837;47.418;19.394;2023-09-19T04:20:51;99235.50;;;19.49;67.04
83021;BME280;72837;47.418;19.394;2023-09-19T04:23:19;99244.56;;;19.45;67.63
83021;BME280;72837;47.418;19.394;2023-09-19T04:25:49;99240.84;;;19.41;67.53
83021;BME280;72837;47.418;19.394;2023-09-19T04:28:17;99239.06;;;19.50;67.96
83021;BME280;72837;47.418;19.394;2023-09-19T04:30:44;99242.25;;;19.52;68.19
83021;BME280;72837;47.418;19.394;2023-09-19T04:33:11;99250.09;;;19.53;68.27
83021;BME280;72837;47.418;19.394;2023-09-19T04:35:42;99253.41;;;19.50;67.78
83021;BME280;72837;47.418;19.394;2023-09-19T04:38:12;99248.97;;;19.54;67.91
83021;BME280;72837;47.418;19.394;2023-09-19T04:40:39;99248.47;;;19.52;67.89
83021;BME280;72837;47.418;19.394;2023-09-19T04:43:08;99257.34;;;19.57;67.96
83021;BME280;72837;47.418;19.394;2023-09-19T04:45:38;99247.78;;;19.60;67.78
83021;BME280;72837;47.418;19.394;2023-09-19T04:48:05;99248.41;;;19.57;68.47
83021;BME280;72837;47.418;19.394;2023-09-19T04:50:36;99251.19;;;19.65;67.62
83021;BME280;72837;47.418;19.394;2023-09-19T04:53:03;99251.91;;;19.71;68.01
83021;BME280;72837;47.418;19.394;2023-09-19T04:55:31;99250.09;;;19.80;67.37
83021;BME280;72837;47.418;19.394;2023-09-19T04:57:59;99261.53;;;19.77;67.83
83021;BME280;72837;47.418;19.394;2023-09-19T05:00:27;99272.59;;;19.80;67.62
83021;BME280;72837;47.418;19.394;2023-09-19T05:02:57;99271.59;;;19.90;67.65
83021;BME280;72837;47.418;19.394;2023-09-19T05:05:25;99268.56;;;19.91;67.50
83021;BME280;72837;47.418;19.394;2023-09-19T05:07:53;99275.59;;;19.92;67.40
83021;BME280;72837;47.418;19.394;2023-09-19T05:10:21;99279.34;;;19.83;67.26
83021;BME280;72837;47.418;19.394;2023-09-19T05:12:52;99289.22;;;19.79;67.98
83021;BME280;72837;47.418;19.394;2023-09-19T05:15:20;99273.91;;;19.83;67.60
83021;BME280;72837;47.418;19.394;2023-09-19T05:17:48;99280.66;;;19.72;67.98
83021;BME280;72837;47.418;19.394;2023-09-19T05:20:22;99282.06;;;19.69;68.55
83021;BME280;72837;47.418;19.394;2023-09-19T05:23:06;99283.28;;;19.77;68.40
83021;BME280;72837;47.418;19.394;2023-09-19T05:25:39;99277.13;;;19.85;68.27
83021;BME280;72837;47.418;19.394;2023-09-19T05:28:08;99267.56;;;19.87;67.88
83021;BME280;72837;47.418;19.394;2023-09-19T05:30:36;99260.13;;;19.93;67.98
83021;BME280;72837;47.418;19.394;2023-09-19T05:33:05;99269.06;;;19.93;67.87
83021;BME280;72837;47.418;19.394;2023-09-19T05:35:33;99283.75;;;19.92;68.25
83021;BME280;72837;47.418;19.394;2023-09-19T05:38:00;99283.25;;;19.90;68.05
83021;BME280;72837;47.418;19.394;2023-09-19T05:40:27;99288.41;;;19.92;68.37
83021;BME280;72837;47.418;19.394;2023-09-19T05:42:55;99278.13;;;20.16;68.24
83021;BME280;72837;47.418;19.394;2023-09-19T05:45:22;99273.25;;;20.26;68.05
83021;BME280;72837;47.418;19.394;2023-09-19T05:47:51;99277.69;;;20.22;68.62
83021;BME280;72837;47.418;19.394;2023-09-19T05:50:22;99276.84;;;20.35;69.18
83021;BME280;72837;47.418;19.394;2023-09-19T05:52:52;99282.09;;;20.32;69.16
83021;BME280;72837;47.418;19.394;2023-09-19T05:55:20;99285.50;;;20.37;69.11
83021;BME280;72837;47.418;19.394;2023-09-19T05:57:51;99281.00;;;20.33;69.72
83021;BME280;72837;47.418;19.394;2023-09-19T06:00:19;99290.94;;;20.37;69.98
83021;BME280;72837;47.418;19.394;2023-09-19T06:02:59;99299.09;;;20.37;69.57
83021;BME280;72837;47.418;19.394;2023-09-19T06:05:27;99293.59;;;20.29;70.20
83021;BME280;72837;47.418;19.394;2023-09-19T06:07:55;99297.91;;;20.30;69.64
83021;BME280;72837;47.418;19.394;2023-09-19T06:10:22;99301.94;;;20.32;69.42
83021;BME280;72837;47.418;19.394;2023-09-19T06:12:51;99297.50;;;20.36;69.50
83021;BME280;72837;47.418;19.394;2023-09-19T06:15:18;99302.22;;;20.44;69.25
83021;BME280;72837;47.418;19.394;2023-09-19T06:17:55;99312.59;;;20.42;69.34
83021;BME280;72837;47.418;19.394;2023-09-19T06:20:24;99299.78;;;20.43;69.33
83021;BME280;72837;47.418;19.394;2023-09-19T06:22:53;99308.22;;;20.33;69.70
83021;BME280;72837;47.418;19.394;2023-09-19T06:25:21;99309.72;;;20.25;70.04
83021;BME280;72837;47.418;19.394;2023-09-19T06:27:52;99315.28;;;20.07;70.50
83021;BME280;72837;47.418;19.394;2023-09-19T06:30:22;99318.00;;;20.07;70.55
83021;BME280;72837;47.418;19.394;2023-09-19T06:32:59;99319.69;;;19.89;70.54
83021;BME280;72837;47.418;19.394;2023-09-19T06:35:27;99332.88;;;19.96;71.02
83021;BME280;72837;47.418;19.394;2023-09-19T06:37:57;99332.38;;;19.80;71.29
83021;BME280;72837;47.418;19.394;2023-09-19T06:40:25;99336.91;;;19.71;71.21
83021;BME280;72837;47.418;19.394;2023-09-19T06:42:53;99343.25;;;19.67;71.93
83021;BME280;72837;47.418;19.394;2023-09-19T06:45:20;99345.25;;;19.48;71.93
83021;BME280;72837;47.418;19.394;2023-09-19T06:47:50;99355.91;;;19.45;72.29
83021;BME280;72837;47.418;19.394;2023-09-19T06:50:19;99357.91;;;19.39;71.97
83021;BME280;72837;47.418;19.394;2023-09-19T06:52:52;99371.41;;;19.44;72.02
83021;BME280;72837;47.418;19.394;2023-09-19T06:55:22;99371.50;;;19.52;71.66
83021;BME280;72837;47.418;19.394;2023-09-19T06:57:52;99374.19;;;19.39;72.30
83021;BME280;72837;47.418;19.394;2023-09-19T07:00:21;99380.63;;;19.30;72.84
83021;BME280;72837;47.418;19.394;2023-09-19T07:05:25;99375.72;;;19.13;73.16
83021;BME280;72837;47.418;19.394;2023-09-19T07:07:52;99381.63;;;19.15;73.33
83021;BME280;72837;47.418;19.394;2023-09-19T07:10:22;99386.78;;;18.98;73.87
83021;BME280;72837;47.418;19.394;2023-09-19T07:13:01;99392.31;;;18.93;74.81
83021;BME280;72837;47.418;19.394;2023-09-19T07:15:32;99401.97;;;18.81;75.16
83021;BME280;72837;47.418;19.394;2023-09-19T07:18:03;99407.41;;;18.62;75.76
83021;BME280;72837;47.418;19.394;2023-09-19T07:20:31;99418.75;;;18.46;76.45
83021;BME280;72837;47.418;19.394;2023-09-19T07:23:00;99426.78;;;18.32;77.41
83021;BME280;72837;47.418;19.394;2023-09-19T07:25:28;99423.75;;;18.39;77.48
83021;BME280;72837;47.418;19.394;2023-09-19T07:27:56;99429.38;;;18.42;77.90
83021;BME280;72837;47.418;19.394;2023-09-19T07:30:27;99427.47;;;18.43;77.57
83021;BME280;72837;47.418;19.394;2023-09-19T07:32:55;99433.91;;;18.47;78.33
83021;BME280;72837;47.418;19.394;2023-09-19T07:35:22;99430.63;;;18.26;78.79
83021;BME280;72837;47.418;19.394;2023-09-19T07:37:49;99436.75;;;18.37;79.04
83021;BME280;72837;47.418;19.394;2023-09-19T07:40:19;99442.84;;;18.24;80.07
83021;BME280;72837;47.418;19.394;2023-09-19T07:42:48;99437.28;;;18.15;79.83
83021;BME280;72837;47.418;19.394;2023-09-19T07:45:15;99444.47;;;18.25;80.47
83021;BME280;72837;47.418;19.394;2023-09-19T07:47:48;99449.88;;;18.30;80.69
83021;BME280;72837;47.418;19.394;2023-09-19T07:50:17;99457.78;;;18.21;80.40
83021;BME280;72837;47.418;19.394;2023-09-19T07:52:49;99452.59;;;18.30;80.18
83021;BME280;72837;47.418;19.394;2023-09-19T07:55:20;99443.28;;;18.36;80.30
83021;BME280;72837;47.418;19.394;2023-09-19T07:57:54;99457.97;;;18.53;79.84
83021;BME280;72837;47.418;19.394;2023-09-19T08:00:21;99457.34;;;18.38;79.55
83021;BME280;72837;47.418;19.394;2023-09-19T08:02:48;99459.09;;;18.71;79.27
83021;BME280;72837;47.418;19.394;2023-09-19T08:05:24;99470.47;;;18.73;79.21
83021;BME280;72837;47.418;19.394;2023-09-19T08:07:53;99468.56;;;18.73;79.54
83021;BME280;72837;47.418;19.394;2023-09-19T08:10:23;99477.41;;;18.60;79.92
83021;BME280;72837;47.418;19.394;2023-09-19T08:12:55;99480.41;;;18.59;79.83
83021;BME280;72837;47.418;19.394;2023-09-19T08:15:25;99481.47;;;18.63;80.20
83021;BME280;72837;47.418;19.394;2023-09-19T08:17:52;99473.09;;;18.59;80.49
83021;BME280;72837;47.418;19.394;2023-09-19T08:20:20;99480.28;;;18.69;81.31
83021;BME280;72837;47.418;19.394;2023-09-19T08:25:16;99486.06;;;18.62;80.97
83021;BME280;72837;47.418;19.394;2023-09-19T08:27:45;99483.34;;;18.62;81.12
83021;BME280;72837;47.418;19.394;2023-09-19T08:30:17;99481.88;;;18.70;80.65
83021;BME280;72837;47.418;19.394;2023-09-19T08:32:45;99486.44;;;18.93;79.76
83021;BME280;72837;47.418;19.394;2023-09-19T08:35:13;99494.31;;;18.94;79.09
83021;BME280;72837;47.418;19.394;2023-09-19T08:37:42;99487.31;;;18.88;78.73
83021;BME280;72837;47.418;19.394;2023-09-19T08:40:12;99491.22;;;19.01;78.82
83021;BME280;72837;47.418;19.394;2023-09-19T08:42:50;99496.38;;;19.02;77.85
83021;BME280;72837;47.418;19.394;2023-09-19T08:45:17;99486.00;;;19.28;78.16
83021;BME280;72837;47.418;19.394;2023-09-19T08:50:50;99493.34;;;19.04;76.84
83021;BME280;72837;47.418;19.394;2023-09-19T08:54:14;99504.28;;;18.99;77.10
83021;BME280;72837;47.418;19.394;2023-09-19T08:56:16;99512.44;;;19.17;76.81
83021;BME280;72837;47.418;19.394;2023-09-19T08:58:47;99521.44;;;19.13;76.95
83021;BME280;72837;47.418;19.394;2023-09-19T09:01:16;99532.44;;;19.03;77.52
83021;BME280;72837;47.418;19.394;2023-09-19T09:03:44;99531.34;;;19.04;77.71
83021;BME280;72837;47.418;19.394;2023-09-19T09:06:16;99538.09;;;19.06;77.60
83021;BME280;72837;47.418;19.394;2023-09-19T09:08:46;99535.16;;;19.03;77.74
83021;BME280;72837;47.418;19.394;2023-09-19T09:11:15;99539.19;;;19.05;78.40
83021;BME280;72837;47.418;19.394;2023-09-19T09:13:44;99544.34;;;19.07;78.23
83021;BME280;72837;47.418;19.394;2023-09-19T09:16:14;99549.41;;;18.95;78.36
83021;BME280;72837;47.418;19.394;2023-09-19T09:18:47;99537.63;;;18.81;78.66
83021;BME280;72837;47.418;19.394;2023-09-19T09:21:25;99538.53;;;18.95;78.54
83021;BME280;72837;47.418;19.394;2023-09-19T09:23:53;99525.56;;;19.10;78.70
83021;BME280;72837;47.418;19.394;2023-09-19T09:26:53;99531.44;;;19.17;78.55
83021;BME280;72837;47.418;19.394;2023-09-19T09:29:47;99522.09;;;19.05;79.04
83021;BME280;72837;47.418;19.394;2023-09-19T09:32:24;99521.72;;;18.93;79.40
83021;BME280;72837;47.418;19.394;2023-09-19T09:34:57;99525.28;;;19.12;79.07
83021;BME280;72837;47.418;19.394;2023-09-19T09:37:28;99515.69;;;19.19;79.59
83021;BME280;72837;47.418;19.394;2023-09-19T09:39:59;99510.72;;;19.26;79.31
83021;BME280;72837;47.418;19.394;2023-09-19T09:42:46;99489.25;;;19.06;80.23
83021;BME280;72837;47.418;19.394;2023-09-19T09:45:25;99475.81;;;19.15;80.99
83021;BME280;72837;47.418;19.394;2023-09-19T09:48:05;99475.88;;;19.47;78.05
83021;BME280;72837;47.418;19.394;2023-09-19T09:50:48;99477.59;;;19.88;78.99
83021;BME280;72837;47.418;19.394;2023-09-19T09:53:28;99472.25;;;20.55;76.57
83021;BME280;72837;47.418;19.394;2023-09-19T09:56:06;99470.75;;;21.12;73.15
83021;BME280;72837;47.418;19.394;2023-09-19T09:58:51;99470.22;;;21.45;72.15
83021;BME280;72837;47.418;19.394;2023-09-19T10:01:23;99472.81;;;22.33;69.97
83021;BME280;72837;47.418;19.394;2023-09-19T10:03:59;99476.56;;;23.01;67.62
83021;BME280;72837;47.418;19.394;2023-09-19T10:06:40;99498.31;;;24.20;62.83
83021;BME280;72837;47.418;19.394;2023-09-19T10:09:14;99510.31;;;23.14;63.10
83021;BME280;72837;47.418;19.394;2023-09-19T10:11:46;99508.09;;;21.69;66.97
83021;BME280;72837;47.418;19.394;2023-09-19T10:14:16;99515.53;;;22.37;66.37
83021;BME280;72837;47.418;19.394;2023-09-19T10:16:48;99512.06;;;22.45;64.76
83021;BME280;72837;47.418;19.394;2023-09-19T10:19:30;99521.50;;;22.39;64.98
83021;BME280;72837;47.418;19.394;2023-09-19T10:22:02;99515.56;;;22.85;63.56
83021;BME280;72837;47.418;19.394;2023-09-19T10:24:33;99526.19;;;23.12;62.04
83021;BME280;72837;47.418;19.394;2023-09-19T10:27:06;99509.47;;;25.10;57.39
83021;BME280;72837;47.418;19.394;2023-09-19T10:29:39;99512.84;;;25.36;55.58
83021;BME280;72837;47.418;19.394;2023-09-19T10:32:07;99522.25;;;24.77;56.32
83021;BME280;72837;47.418;19.394;2023-09-19T10:34:36;99528.56;;;22.88;63.52
83021;BME280;72837;47.418;19.394;2023-09-19T10:37:09;99526.25;;;23.46;62.24
83021;BME280;72837;47.418;19.394;2023-09-19T10:39:40;99513.66;;;24.50;57.14
83021;BME280;72837;47.418;19.394;2023-09-19T10:42:10;99517.41;;;23.66;57.79
83021;BME280;72837;47.418;19.394;2023-09-19T10:44:45;99510.19;;;22.63;59.96
83021;BME280;72837;47.418;19.394;2023-09-19T10:47:13;99515.13;;;21.92;62.06
83021;BME280;72837;47.418;19.394;2023-09-19T10:49:45;99522.63;;;21.86;63.26
83021;BME280;72837;47.418;19.394;2023-09-19T10:52:21;99535.78;;;22.14;63.71
83021;BME280;72837;47.418;19.394;2023-09-19T10:54:52;99536.19;;;21.56;66.91
83021;BME280;72837;47.418;19.394;2023-09-19T10:57:22;99546.09;;;21.16;67.75
83021;BME280;72837;47.418;19.394;2023-09-19T11:00:02;99553.94;;;21.18;67.67
83021;BME280;72837;47.418;19.394;2023-09-19T11:05:40;99555.28;;;21.42;66.09
83021;BME280;72837;47.418;19.394;2023-09-19T11:08:07;99551.75;;;21.42;64.16
83021;BME280;72837;47.418;19.394;2023-09-19T11:10:48;99550.34;;;21.80;63.29
83021;BME280;72837;47.418;19.394;2023-09-19T11:13:29;99552.59;;;21.29;64.41
83021;BME280;72837;47.418;19.394;2023-09-19T11:26:43;99538.38;;;21.67;62.92
83021;BME280;72837;47.418;19.394;2023-09-19T11:29:25;99543.75;;;21.81;63.39
83021;BME280;72837;47.418;19.394;2023-09-19T11:31:53;99547.56;;;22.23;62.78
83021;BME280;72837;47.418;19.394;2023-09-19T11:34:39;99551.63;;;22.34;63.70
83021;BME280;72837;47.418;19.394;2023-09-19T11:39:38;99551.06;;;21.72;65.04
83021;BME280;72837;47.418;19.394;2023-09-19T11:42:47;99556.13;;;21.87;65.36
83021;BME280;72837;47.418;19.394;2023-09-19T11:48:26;99563.50;;;22.38;62.96
83021;BME280;72837;47.418;19.394;2023-09-19T11:50:54;99552.38;;;22.96;61.31
83021;BME280;72837;47.418;19.394;2023-09-19T11:53:22;99564.66;;;23.49;60.03
83021;BME280;72837;47.418;19.394;2023-09-19T11:55:50;99566.88;;;23.13;61.06
83021;BME280;72837;47.418;19.394;2023-09-19T11:58:19;99549.16;;;24.21;57.62
83021;BME280;72837;47.418;19.394;2023-09-19T12:00:54;99548.34;;;24.29;57.12
83021;BME280;72837;47.418;19.394;2023-09-19T12:03:29;99555.50;;;23.62;58.34
83021;BME280;72837;47.418;19.394;2023-09-19T12:05:58;99545.38;;;23.37;58.39
83021;BME280;72837;47.418;19.394;2023-09-19T12:08:26;99544.25;;;23.64;57.84
83021;BME280;72837;47.418;19.394;2023-09-19T12:10:54;99541.81;;;24.13;56.00
83021;BME280;72837;47.418;19.394;2023-09-19T12:13:23;99551.31;;;23.22;54.75
83021;BME280;72837;47.418;19.394;2023-09-19T12:15:51;99555.09;;;22.96;55.49
83021;BME280;72837;47.418;19.394;2023-09-19T12:18:28;99541.19;;;23.23;54.98
83021;BME280;72837;47.418;19.394;2023-09-19T12:20:57;99545.38;;;23.97;53.39
83021;BME280;72837;47.418;19.394;2023-09-19T12:26:02;99551.16;;;23.36;53.82
83021;BME280;72837;47.418;19.394;2023-09-19T12:28:44;99548.16;;;22.90;54.92
83021;BME280;72837;47.418;19.394;2023-09-19T12:31:12;99557.75;;;22.79;54.83
83021;BME280;72837;47.418;19.394;2023-09-19T12:33:39;99547.56;;;23.01;54.81
83021;BME280;72837;47.418;19.394;2023-09-19T12:36:22;99549.56;;;23.26;54.81
83021;BME280;72837;47.418;19.394;2023-09-19T12:38:58;99551.19;;;23.53;54.71
83021;BME280;72837;47.418;19.394;2023-09-19T12:41:26;99547.28;;;23.20;54.31
83021;BME280;72837;47.418;19.394;2023-09-19T12:43:54;99552.78;;;23.45;53.94
83021;BME280;72837;47.418;19.394;2023-09-19T12:46:21;99557.28;;;23.67;54.21
83021;BME280;72837;47.418;19.394;2023-09-19T12:49:18;99558.56;;;23.78;53.47
83021;BME280;72837;47.418;19.394;2023-09-19T12:51:46;99544.91;;;23.44;53.90
83021;BME280;72837;47.418;19.394;2023-09-19T12:54:15;99557.44;;;24.04;53.48
83021;BME280;72837;47.418;19.394;2023-09-19T12:56:45;99558.78;;;22.91;54.75
83021;BME280;72837;47.418;19.394;2023-09-19T12:59:14;99551.16;;;23.19;54.79
83021;BME280;72837;47.418;19.394;2023-09-19T13:01:42;99558.88;;;23.25;54.11
83021;BME280;72837;47.418;19.394;2023-09-19T13:04:15;99556.69;;;22.97;54.94
83021;BME280;72837;47.418;19.394;2023-09-19T13:06:47;99546.09;;;23.04;55.11
83021;BME280;72837;47.418;19.394;2023-09-19T13:09:22;99547.78;;;23.47;54.72
83021;BME280;72837;47.418;19.394;2023-09-19T13:12:02;99543.91;;;23.99;54.07
83021;BME280;72837;47.418;19.394;2023-09-19T13:14:30;99547.31;;;23.79;54.30
83021;BME280;72837;47.418;19.394;2023-09-19T13:17:08;99552.59;;;23.76;52.82
83021;BME280;72837;47.418;19.394;2023-09-19T13:19:47;99553.22;;;23.22;54.75
83021;BME280;72837;47.418;19.394;2023-09-19T13:25:13;99551.00;;;23.92;54.37
83021;BME280;72837;47.418;19.394;2023-09-19T13:27:52;99558.53;;;23.27;55.79
83021;BME280;72837;47.418;19.394;2023-09-19T13:30:28;99562.72;;;23.33;54.92
83021;BME280;72837;47.418;19.394;2023-09-19T13:33:06;99564.69;;;23.41;55.95
83021;BME280;72837;47.418;19.394;2023-09-19T13:35:34;99570.53;;;23.09;55.09
83021;BME280;72837;47.418;19.394;2023-09-19T13:38:01;99572.75;;;22.98;55.04
83021;BME280;72837;47.418;19.394;2023-09-19T13:40:29;99571.88;;;23.37;53.96
83021;BME280;72837;47.418;19.394;2023-09-19T13:43:02;99571.41;;;23.43;53.50
83021;BME280;72837;47.418;19.394;2023-09-19T13:45:29;99568.69;;;23.43;52.80
83021;BME280;72837;47.418;19.394;2023-09-19T13:47:57;99585.72;;;23.32;53.49
83021;BME280;72837;47.418;19.394;2023-09-19T13:50:27;99573.81;;;23.28;53.08
83021;BME280;72837;47.418;19.394;2023-09-19T13:52:56;99585.25;;;23.30;52.94